Time;durP1;ratioP1;P1;durP2;ratioP2;P2;SDS_P1;SDS_P2;PMS_P1;PMS_P2;Temp;Humidity;BMP_temperature;BMP_pressure;BME280_temperature;BME280_humidity;BME280_pressure;Samples;Min_cycle;Max_cycle;Signal;HPM_P1;HPM_P2
2022/02/23 00:01:45;;;;;;;1.20;0.80;;;8.60;45.00;;;;;;5092550;28;21007;-76
2022/02/23 00:04:12;;;;;;;2.30;0.70;;;8.60;99.90;;;;;;5086285;28;20480;-76
2022/02/23 00:06:39;;;;;;;1.70;0.80;;;8.60;99.90;;;;;;5079281;28;20491;-77
2022/02/23 00:09:06;;;;;;;0.93;0.70;;;8.60;99.90;;;;;;5093175;28;20492;-77
2022/02/23 00:11:33;;;;;;;1.57;1.00;;;8.60;99.90;;;;;;5091823;28;20464;-76
2022/02/23 00:14:01;;;;;;;1.00;0.70;;;8.60;99.90;;;;;;5091852;28;20449;-76
2022/02/23 00:16:28;;;;;;;2.60;0.70;;;8.60;1.00;;;;;;5091604;28;20448;-76
2022/02/23 00:18:55;;;;;;;2.40;1.07;;;8.60;99.90;;;;;;5092164;28;20523;-77
2022/02/23 00:21:22;;;;;;;1.00;0.60;;;8.60;1.00;;;;;;5092101;28;20975;-77
2022/02/23 00:23:49;;;;;;;3.20;1.10;;;8.60;1.00;;;;;;5091854;28;21217;-75
2022/02/23 00:26:16;;;;;;;1.33;0.70;;;8.60;1.00;;;;;;5092210;28;20954;-75
2022/02/23 00:28:43;;;;;;;4.20;1.00;;;8.50;1.00;;;;;;5092167;28;20528;-74
2022/02/23 00:31:11;;;;;;;1.27;0.70;;;8.60;28.50;;;;;;5091968;28;20488;-75
2022/02/23 00:33:38;;;;;;;1.93;0.90;;;8.50;99.90;;;;;;5091108;28;21340;-76
2022/02/23 00:36:05;;;;;;;1.27;0.60;;;8.50;99.90;;;;;;5092606;28;21004;-75
2022/02/23 00:38:32;;;;;;;3.43;1.37;;;8.50;99.90;;;;;;5091273;28;20472;-77
2022/02/23 00:40:59;;;;;;;1.33;0.90;;;8.60;99.90;;;;;;5092077;28;20483;-75
2022/02/23 00:43:26;;;;;;;0.90;0.57;;;8.50;99.90;;;;;;5090808;28;20460;-76
2022/02/23 00:45:53;;;;;;;1.90;0.80;;;8.50;99.90;;;;;;5091964;28;20459;-75
2022/02/23 00:48:22;;;;;;;1.60;0.90;;;8.50;99.90;;;;;;5091436;28;20448;-74
2022/02/23 00:50:48;;;;;;;2.57;0.70;;;8.50;1.00;;;;;;5092104;28;20460;-75
2022/02/23 00:53:15;;;;;;;2.17;0.90;;;8.50;1.00;;;;;;5091153;28;20502;-76
2022/02/23 00:55:42;;;;;;;5.23;1.10;;;8.50;1.00;;;;;;5091731;28;20449;-76
2022/02/23 00:58:09;;;;;;;3.80;0.80;;;8.50;1.00;;;;;;5089755;28;20540;-75
2022/02/23 01:00:36;;;;;;;4.50;0.90;;;8.50;1.00;;;;;;5090361;28;20449;-77
2022/02/23 01:03:03;;;;;;;1.07;0.60;;;8.50;1.00;;;;;;5091549;28;20488;-75
2022/02/23 01:05:31;;;;;;;1.23;0.73;;;8.50;1.00;;;;;;5090669;28;20452;-75
2022/02/23 01:07:58;;;;;;;1.67;0.87;;;8.50;1.00;;;;;;5091320;28;20448;-73
2022/02/23 01:10:25;;;;;;;2.40;0.77;;;8.60;1.00;;;;;;5082226;28;20494;-75
2022/02/23 01:12:52;;;;;;;0.90;0.60;;;8.50;1.00;;;;;;5091355;28;20531;-76
2022/02/23 01:15:19;;;;;;;3.30;0.80;;;8.60;1.00;;;;;;5081772;28;20472;-77
2022/02/23 01:17:46;;;;;;;1.13;0.63;;;8.60;1.00;;;;;;5091330;28;20455;-78
2022/02/23 01:20:13;;;;;;;1.83;1.23;;;8.60;1.00;;;;;;5092018;28;20530;-75
2022/02/23 01:22:41;;;;;;;2.50;1.20;;;8.60;1.00;;;;;;5091016;28;20480;-76
2022/02/23 01:25:09;;;;;;;1.37;0.70;;;8.60;10.60;;;;;;5090958;28;20448;-75
2022/02/23 01:27:36;;;;;;;2.77;0.90;;;8.50;31.10;;;;;;5089360;28;20464;-77
2022/02/23 01:30:04;;;;;;;4.50;0.83;;;8.40;99.90;;;;;;5091304;28;20535;-76
2022/02/23 01:32:30;;;;;;;1.70;0.90;;;8.40;99.90;;;;;;5090652;28;20539;-76
2022/02/23 01:34:58;;;;;;;0.90;0.70;;;8.40;99.90;;;;;;5090556;28;20453;-76
2022/02/23 01:37:25;;;;;;;2.03;0.97;;;8.40;99.90;;;;;;5090702;28;20527;-77
2022/02/23 01:39:53;;;;;;;2.33;0.93;;;8.40;99.90;;;;;;5090754;28;20441;-77
2022/02/23 01:42:20;;;;;;;1.37;0.70;;;8.30;99.90;;;;;;5090692;28;20512;-75
2022/02/23 01:44:47;;;;;;;1.47;1.20;;;8.40;99.90;;;;;;5080602;28;20445;-75
2022/02/23 01:47:13;;;;;;;3.77;1.10;;;8.40;99.90;;;;;;5090646;28;20527;-76
2022/02/23 01:49:40;;;;;;;2.00;0.80;;;8.30;99.90;;;;;;5090679;28;20532;-77
2022/02/23 01:52:07;;;;;;;1.57;0.97;;;8.40;99.90;;;;;;5091183;28;21020;-76
2022/02/23 01:54:34;;;;;;;1.13;0.83;;;8.40;99.90;;;;;;5089468;28;20476;-76
2022/02/23 01:57:03;;;;;;;2.47;0.87;;;8.40;99.90;;;;;;5090910;28;20526;-75
2022/02/23 01:59:30;;;;;;;6.23;0.93;;;8.40;99.90;;;;;;5090185;28;20806;-73
2022/02/23 02:01:56;;;;;;;4.10;1.03;;;7.70;1.00;;;;;;5090511;28;20484;-73
2022/02/23 02:04:23;;;;;;;4.20;1.00;;;7.00;99.90;;;;;;5089765;28;20552;-74
2022/02/23 02:06:50;;;;;;;1.10;0.60;;;6.60;99.90;;;;;;5090464;28;20928;-75
2022/02/23 02:09:18;;;;;;;7.23;0.97;;;6.50;99.90;;;;;;5084078;28;20454;-71
2022/02/23 02:11:46;;;;;;;5.53;1.13;;;6.40;99.90;;;;;;5093530;28;20866;-74
2022/02/23 02:14:14;;;;;;;2.60;1.47;;;6.30;99.90;;;;;;5095092;28;20523;-75
2022/02/23 02:16:41;;;;;;;4.30;1.27;;;6.30;99.90;;;;;;5094390;28;20452;-75
2022/02/23 02:19:08;;;;;;;3.23;1.27;;;6.30;99.90;;;;;;5094254;28;20921;-76
2022/02/23 02:21:57;;;;;;;2.77;0.87;;;6.40;99.90;;;;;;5094354;28;20836;-75
2022/02/23 02:24:26;;;;;;;2.50;0.93;;;6.30;99.90;;;;;;5093406;28;20458;-76
2022/02/23 02:26:53;;;;;;;5.13;1.10;;;6.30;99.90;;;;;;5095211;28;20448;-76
2022/02/23 02:29:20;;;;;;;4.40;1.43;;;6.20;99.90;;;;;;5080917;28;20924;-76
2022/02/23 02:31:48;;;;;;;3.63;1.50;;;6.10;99.90;;;;;;5093957;28;20485;-74
2022/02/23 02:34:15;;;;;;;3.07;1.10;;;6.20;99.90;;;;;;5088552;28;20947;-76
2022/02/23 02:36:42;;;;;;;3.40;0.77;;;6.40;99.90;;;;;;5094520;28;20450;-76
2022/02/23 02:39:11;;;;;;;2.87;1.10;;;6.50;99.90;;;;;;5094683;28;20494;-77
2022/02/23 02:41:38;;;;;;;2.83;1.20;;;6.40;99.90;;;;;;5093557;28;20489;-76
2022/02/23 02:44:06;;;;;;;4.30;1.10;;;6.50;99.90;;;;;;5093830;28;20472;-77
2022/02/23 02:46:33;;;;;;;2.70;0.90;;;6.60;99.90;;;;;;5092913;28;20444;-75
2022/02/23 02:49:00;;;;;;;2.67;0.90;;;6.50;99.90;;;;;;5094321;28;20535;-76
2022/02/23 02:51:27;;;;;;;6.10;1.33;;;6.30;99.90;;;;;;5093891;28;20470;-75
2022/02/23 02:53:54;;;;;;;2.07;1.20;;;6.30;99.90;;;;;;5092931;28;20555;-75
2022/02/23 02:56:22;;;;;;;8.10;2.00;;;6.40;99.90;;;;;;5093393;28;20448;-74
2022/02/23 02:58:52;;;;;;;4.90;1.10;;;6.50;99.90;;;;;;5094199;28;20527;-74
2022/02/23 03:01:20;;;;;;;4.30;1.60;;;6.50;99.90;;;;;;5092877;28;20553;-74
2022/02/23 03:03:47;;;;;;;8.60;1.50;;;6.60;99.90;;;;;;5093723;28;20447;-74
2022/02/23 03:06:14;;;;;;;4.17;1.07;;;6.70;60.10;;;;;;5094269;28;20444;-76
2022/02/23 03:08:41;;;;;;;5.00;1.37;;;6.70;1.00;;;;;;5093467;28;20528;-75
2022/02/23 03:11:08;;;;;;;2.20;1.03;;;6.70;12.80;;;;;;5093295;28;20440;-75
2022/02/23 03:13:37;;;;;;;1.57;0.90;;;6.80;1.00;;;;;;5084719;28;20442;-74
2022/02/23 03:16:04;;;;;;;3.80;1.10;;;6.90;1.00;;;;;;5091465;28;20810;-74
2022/02/23 03:18:32;;;;;;;2.60;1.30;;;6.90;1.00;;;;;;5093667;28;20535;-76
2022/02/23 03:20:59;;;;;;;4.80;1.60;;;7.00;1.00;;;;;;5094150;28;20453;-76
2022/02/23 03:23:26;;;;;;;3.00;1.30;;;7.10;1.00;;;;;;5091171;28;20546;-76
2022/02/23 03:25:53;;;;;;;3.10;1.40;;;7.20;1.00;;;;;;5093746;28;20859;-75
2022/02/23 03:28:20;;;;;;;3.87;1.10;;;7.10;1.00;;;;;;5092655;28;20535;-76
2022/02/23 03:30:49;;;;;;;4.17;1.53;;;7.00;1.00;;;;;;5093593;28;20889;-75
2022/02/23 03:33:16;;;;;;;3.83;1.30;;;7.10;1.00;;;;;;5093021;28;20885;-75
2022/02/23 03:35:45;;;;;;;6.30;1.43;;;6.90;1.00;;;;;;5093559;28;20440;-75
2022/02/23 03:38:13;;;;;;;4.27;1.43;;;6.90;1.00;;;;;;5093540;28;20527;-75
2022/02/23 03:40:41;;;;;;;4.43;1.27;;;6.90;1.00;;;;;;5092801;28;20492;-75
2022/02/23 03:43:08;;;;;;;3.63;1.60;;;6.90;1.00;;;;;;5093383;28;20513;-76
2022/02/23 03:45:35;;;;;;;2.63;1.50;;;7.00;99.90;;;;;;5079567;28;20531;-75
2022/02/23 03:48:04;;;;;;;2.87;1.20;;;6.80;99.90;;;;;;5093252;28;20473;-75
2022/02/23 03:50:31;;;;;;;9.47;1.60;;;6.60;99.90;;;;;;5092636;28;20476;-75
2022/02/23 03:52:58;;;;;;;6.40;1.57;;;6.40;99.90;;;;;;5092895;28;20533;-75
2022/02/23 03:55:25;;;;;;;1.90;1.00;;;6.30;99.90;;;;;;5091924;28;20481;-77
2022/02/23 03:57:52;;;;;;;2.90;1.30;;;6.20;99.90;;;;;;5093037;28;20537;-76
2022/02/23 04:00:19;;;;;;;2.23;1.23;;;6.10;99.90;;;;;;5080403;28;20445;-73
2022/02/23 04:02:46;;;;;;;6.93;2.67;;;5.90;99.90;;;;;;5092535;28;20563;-75
2022/02/23 04:05:14;;;;;;;4.97;1.57;;;5.90;99.90;;;;;;5092517;28;20467;-76
2022/02/23 04:07:41;;;;;;;13.47;1.97;;;5.70;99.90;;;;;;5087306;28;20451;-74
2022/02/23 04:10:09;;;;;;;3.47;1.70;;;5.60;99.90;;;;;;5093471;28;20456;-76
2022/02/23 04:12:36;;;;;;;2.00;1.00;;;5.60;99.90;;;;;;5092819;28;20459;-75
2022/02/23 04:15:03;;;;;;;4.50;1.43;;;5.50;99.90;;;;;;5092195;28;20960;-76
2022/02/23 04:17:30;;;;;;;6.07;2.07;;;5.70;99.90;;;;;;5089971;28;20947;-75
2022/02/23 04:19:57;;;;;;;12.70;1.87;;;5.70;99.90;;;;;;5083542;28;20482;-75
2022/02/23 04:22:26;;;;;;;5.80;1.70;;;5.50;99.90;;;;;;5092267;28;20491;-77
2022/02/23 04:24:53;;;;;;;2.70;1.87;;;5.50;99.90;;;;;;5103977;28;20436;-75
2022/02/23 04:27:19;;;;;;;2.53;1.53;;;5.50;99.90;;;;;;5095807;28;20444;-71
2022/02/23 04:29:46;;;;;;;2.00;1.13;;;5.50;99.90;;;;;;5093057;28;20923;-74
2022/02/23 04:32:13;;;;;;;8.33;1.80;;;5.50;99.90;;;;;;5091976;28;20548;-74
2022/02/23 04:34:40;;;;;;;3.70;2.10;;;5.40;99.90;;;;;;5099380;28;20455;-74
2022/02/23 04:37:08;;;;;;;7.20;2.27;;;5.40;99.90;;;;;;5093699;28;20455;-75
2022/02/23 04:39:36;;;;;;;9.73;2.00;;;5.40;99.90;;;;;;5091615;28;20501;-75
2022/02/23 04:42:03;;;;;;;4.30;1.70;;;5.40;99.90;;;;;;5092483;28;20859;-75
2022/02/23 04:44:30;;;;;;;2.20;1.43;;;5.50;99.90;;;;;;5090851;28;20523;-74
2022/02/23 04:46:57;;;;;;;6.37;2.23;;;5.40;99.90;;;;;;5091639;28;20471;-74
2022/02/23 04:49:24;;;;;;;9.80;2.07;;;5.40;99.90;;;;;;5090988;28;20535;-74
2022/02/23 04:51:50;;;;;;;6.17;2.33;;;5.30;99.90;;;;;;5091946;28;20495;-73
2022/02/23 04:54:17;;;;;;;4.03;1.47;;;5.30;99.90;;;;;;5090785;28;20555;-71
2022/02/23 04:56:47;;;;;;;7.80;3.10;;;5.20;99.90;;;;;;5092542;28;20528;-73
2022/02/23 04:59:13;;;;;;;3.93;1.77;;;5.20;99.90;;;;;;5092081;28;20489;-72
2022/02/23 05:01:40;;;;;;;12.23;1.73;;;5.20;99.90;;;;;;5090632;28;20448;-72
2022/02/23 05:04:07;;;;;;;3.77;1.73;;;5.30;99.90;;;;;;5090908;28;20575;-74
2022/02/23 05:06:34;;;;;;;9.57;2.07;;;5.20;99.90;;;;;;5091428;28;20844;-74
2022/02/23 05:09:01;;;;;;;11.47;2.27;;;5.40;99.90;;;;;;5091454;28;20863;-74
2022/02/23 05:11:28;;;;;;;4.00;1.87;;;5.30;99.90;;;;;;5089531;28;20549;-75
2022/02/23 05:13:56;;;;;;;3.60;1.70;;;5.30;99.90;;;;;;5091525;28;20527;-74
2022/02/23 05:16:23;;;;;;;5.50;1.77;;;5.20;99.90;;;;;;5085800;28;20441;-74
2022/02/23 05:18:50;;;;;;;5.23;1.70;;;5.30;99.90;;;;;;5091632;28;20452;-74
2022/02/23 05:21:17;;;;;;;5.50;2.00;;;5.20;99.90;;;;;;5078758;28;20460;-70
2022/02/23 05:23:44;;;;;;;4.40;1.93;;;5.20;99.90;;;;;;5090590;28;20510;-73
2022/02/23 05:26:14;;;;;;;6.80;1.80;;;5.10;99.90;;;;;;5091692;28;20483;-73
2022/02/23 05:28:41;;;;;;;7.93;3.47;;;5.10;99.90;;;;;;5091155;28;20451;-73
2022/02/23 05:31:09;;;;;;;4.93;3.23;;;5.10;99.90;;;;;;5091049;28;20570;-73
2022/02/23 05:33:36;;;;;;;5.90;2.20;;;5.10;99.90;;;;;;5089447;28;20467;-73
2022/02/23 05:36:03;;;;;;;2.60;1.93;;;5.00;99.90;;;;;;5091267;28;20539;-73
2022/02/23 05:38:30;;;;;;;7.20;2.37;;;4.90;99.90;;;;;;5090598;28;20977;-76
2022/02/23 05:40:58;;;;;;;6.57;2.03;;;4.80;99.90;;;;;;5090802;28;20995;-74
2022/02/23 05:43:25;;;;;;;13.00;5.10;;;4.70;99.90;;;;;;5077775;28;20483;-75
2022/02/23 05:45:52;;;;;;;6.50;3.90;;;4.70;99.90;;;;;;5091159;28;20453;-73
2022/02/23 05:48:20;;;;;;;10.23;2.80;;;4.60;99.90;;;;;;5091088;28;20526;-72
2022/02/23 05:50:47;;;;;;;5.90;1.97;;;4.60;99.90;;;;;;5091600;28;20512;-74
2022/02/23 05:53:14;;;;;;;2.93;1.60;;;4.40;99.90;;;;;;5091040;28;20545;-72
2022/02/23 05:55:41;;;;;;;8.43;1.80;;;4.50;99.90;;;;;;5090471;28;20483;-73
2022/02/23 05:58:08;;;;;;;6.83;2.57;;;4.50;99.90;;;;;;5091222;28;20869;-75
2022/02/23 06:00:35;;;;;;;6.33;2.17;;;4.50;99.90;;;;;;5089635;28;20451;-72
2022/02/23 06:03:02;;;;;;;3.77;1.77;;;4.60;99.90;;;;;;5085097;28;20529;-81
2022/02/23 06:05:30;;;;;;;7.60;4.13;;;4.60;99.90;;;;;;5081671;28;20444;-76
2022/02/23 06:07:57;;;;;;;8.97;2.30;;;4.50;99.90;;;;;;5090752;28;20502;-72
2022/02/23 06:10:26;;;;;;;7.97;2.20;;;4.40;99.90;;;;;;5090308;28;20831;-70
2022/02/23 06:12:53;;;;;;;4.33;2.50;;;4.30;99.90;;;;;;5090945;28;20477;-70
2022/02/23 06:15:20;;;;;;;9.27;2.87;;;4.20;99.90;;;;;;5088925;28;20533;-72
2022/02/23 06:17:47;;;;;;;8.13;3.43;;;4.30;99.90;;;;;;5091124;28;20544;-73
2022/02/23 06:20:14;;;;;;;7.27;3.00;;;4.20;99.90;;;;;;5091450;28;20443;-73
2022/02/23 06:22:42;;;;;;;7.60;3.53;;;4.20;99.90;;;;;;5090585;28;20459;-73
2022/02/23 06:25:09;;;;;;;6.30;2.83;;;4.20;99.90;;;;;;5090555;28;20482;-74
2022/02/23 06:27:36;;;;;;;4.33;2.50;;;4.20;99.90;;;;;;5090500;28;20451;-74
2022/02/23 06:30:04;;;;;;;4.00;2.77;;;4.20;99.90;;;;;;5091208;28;20518;-75
2022/02/23 06:32:31;;;;;;;5.37;2.67;;;4.30;99.90;;;;;;5077183;28;20494;-74
2022/02/23 06:34:58;;;;;;;6.67;2.90;;;4.30;99.90;;;;;;5090554;28;20502;-74
2022/02/23 06:37:25;;;;;;;4.23;2.13;;;4.30;99.90;;;;;;5090336;28;20539;-74
2022/02/23 06:39:54;;;;;;;3.37;2.20;;;4.30;99.90;;;;;;5090972;28;20452;-73
2022/02/23 06:42:21;;;;;;;8.77;3.13;;;4.30;99.90;;;;;;5090270;28;20476;-73
2022/02/23 06:44:48;;;;;;;2.80;1.83;;;4.30;99.90;;;;;;5090485;28;20480;-74
2022/02/23 06:47:17;;;;;;;6.97;2.80;;;4.30;99.90;;;;;;5090887;28;20447;-74
2022/02/23 06:49:44;;;;;;;7.23;2.90;;;4.20;99.90;;;;;;5091318;28;20509;-74
2022/02/23 06:52:12;;;;;;;5.73;3.80;;;4.10;99.90;;;;;;5091230;28;20455;-74
2022/02/23 06:54:39;;;;;;;10.53;4.10;;;4.10;99.90;;;;;;5089855;28;20488;-74
2022/02/23 06:57:09;;;;;;;5.90;3.70;;;4.10;99.90;;;;;;5090417;28;20837;-74
2022/02/23 06:59:38;;;;;;;8.23;3.30;;;4.00;99.90;;;;;;5095840;28;20506;-74
2022/02/23 07:02:05;;;;;;;6.30;3.37;;;4.20;99.90;;;;;;5095931;28;20453;-74
2022/02/23 07:04:32;;;;;;;4.40;3.10;;;4.20;99.90;;;;;;5094559;28;20480;-74
2022/02/23 07:06:59;;;;;;;7.67;3.10;;;4.30;99.90;;;;;;5093949;28;20534;-74
2022/02/23 07:09:26;;;;;;;5.63;3.07;;;4.20;99.90;;;;;;5093661;28;20535;-74
2022/02/23 07:11:53;;;;;;;9.40;3.27;;;4.30;99.90;;;;;;5094436;28;20444;-74
2022/02/23 07:14:22;;;;;;;7.80;2.40;;;4.20;99.90;;;;;;5093773;28;20486;-74
2022/02/23 07:16:49;;;;;;;6.40;3.60;;;4.20;99.90;;;;;;5093474;28;20788;-74
2022/02/23 07:19:20;;;;;;;3.10;2.60;;;4.20;99.90;;;;;;5094376;28;20496;-74
2022/02/23 07:21:47;;;;;;;6.40;2.60;;;4.10;99.90;;;;;;5094272;28;20469;-75
2022/02/23 07:24:14;;;;;;;5.10;3.27;;;4.00;99.90;;;;;;5094253;28;20571;-74
2022/02/23 07:26:41;;;;;;;8.90;3.37;;;4.10;99.90;;;;;;5093230;28;20448;-74
2022/02/23 07:29:08;;;;;;;7.30;2.90;;;4.10;99.90;;;;;;5094034;28;20487;-73
2022/02/23 07:31:36;;;;;;;6.30;3.47;;;4.20;99.90;;;;;;5092944;28;20527;-74
2022/02/23 07:34:05;;;;;;;6.17;3.40;;;4.30;99.90;;;;;;5093506;28;20445;-74
2022/02/23 07:36:31;;;;;;;5.07;3.57;;;4.30;99.90;;;;;;5092520;28;20938;-74
2022/02/23 07:38:58;;;;;;;6.37;3.80;;;4.40;99.90;;;;;;5093871;28;20799;-74
2022/02/23 07:41:25;;;;;;;4.50;2.73;;;4.40;99.90;;;;;;5093529;28;20456;-73
2022/02/23 07:43:54;;;;;;;10.27;3.63;;;4.40;99.90;;;;;;5093516;28;20515;-73
2022/02/23 07:46:21;;;;;;;4.77;3.17;;;4.40;99.90;;;;;;5092582;28;20469;-73
2022/02/23 07:48:53;;;;;;;10.73;3.30;;;4.60;99.90;;;;;;5093292;28;20444;-73
2022/02/23 07:51:20;;;;;;;5.67;3.10;;;4.70;99.90;;;;;;5093007;28;20547;-73
2022/02/23 07:53:48;;;;;;;4.20;3.00;;;4.70;99.90;;;;;;5093776;28;20533;-74
2022/02/23 07:56:15;;;;;;;12.23;3.50;;;4.80;99.90;;;;;;5093368;28;20444;-73
2022/02/23 07:58:42;;;;;;;5.17;3.17;;;4.80;99.90;;;;;;5092991;28;20524;-74
2022/02/23 08:01:27;;;;;;;7.83;3.67;;;4.90;99.90;;;;;;5093262;28;20497;-74
2022/02/23 08:03:55;;;;;;;10.77;3.77;;;5.00;99.90;;;;;;5093402;28;20475;-74
2022/02/23 08:06:22;;;;;;;5.90;3.60;;;5.20;99.90;;;;;;5091918;28;20445;-73
2022/02/23 08:08:49;;;;;;;9.13;3.70;;;5.30;99.90;;;;;;5092795;28;20444;-73
2022/02/23 08:11:18;;;;;;;5.30;3.20;;;5.50;99.90;;;;;;5093426;28;20495;-74
2022/02/23 08:13:45;;;;;;;4.80;3.30;;;5.60;99.90;;;;;;5093246;28;20457;-73
2022/02/23 08:21:53;;;;;;;7.40;3.33;;;;;;;;;;5084216;28;20933;-75
2022/02/23 08:24:21;;;;;;;4.17;2.43;;;;;;;;;;5093826;28;20478;-73
2022/02/23 08:26:48;;;;;;;5.27;3.00;;;;;;;;;;5092632;28;20456;-74
2022/02/23 08:29:15;;;;;;;6.13;2.80;;;;;;;;;;5093154;28;20453;-74
2022/02/23 08:31:43;;;;;;;4.87;2.17;;;;;;;;;;5092322;28;20859;-73
2022/02/23 08:34:11;;;;;;;3.50;2.63;;;;;;;;;;5092517;28;20479;-73
2022/02/23 08:36:38;;;;;;;7.00;2.90;;;;;;;;;;5091351;28;20682;-74
2022/02/23 08:39:06;;;;;;;5.83;2.77;;;;;;;;;;5092505;28;20498;-74
2022/02/23 08:41:34;;;;;;;8.53;3.33;;;;;;;;;;5092170;28;20444;-73
2022/02/23 08:44:02;;;;;;;7.20;3.17;;;;;;;;;;5092385;28;20523;-74
2022/02/23 08:46:30;;;;;;;5.20;2.90;;;;;;;;;;5091242;28;20948;-73
2022/02/23 08:48:57;;;;;;;4.80;2.03;;;;;;;;;;5092537;28;20471;-73
2022/02/23 08:51:25;;;;;;;5.00;1.70;;;;;;;;;;5091717;28;20940;-73
2022/02/23 08:53:52;;;;;;;4.67;1.63;;;;;;;;;;5092487;28;20595;-74
2022/02/23 08:56:20;;;;;;;4.87;1.87;;;;;;;;;;5091650;28;20476;-74
2022/02/23 08:58:47;;;;;;;6.40;1.83;;;;;;;;;;5092304;28;20450;-74
2022/02/23 09:01:14;;;;;;;4.07;2.10;;;;;;;;;;5092470;28;20531;-73
2022/02/23 09:03:42;;;;;;;4.10;1.60;;;;;;;;;;5091050;28;20491;-74
2022/02/23 09:06:09;;;;;;;4.40;1.33;;;;;;;;;;5091561;28;20448;-74
2022/02/23 09:08:38;;;;;;;7.77;2.17;;;;;;;;;;5091611;28;20531;-73
2022/02/23 09:11:06;;;;;;;4.77;1.63;;;;;;;;;;5092143;28;20985;-74
2022/02/23 09:13:33;;;;;;;5.07;1.60;;;;;;;;;;5091544;28;20440;-74
2022/02/23 09:16:00;;;;;;;3.50;1.70;;;;;;;;;;5091253;28;20455;-74
2022/02/23 09:18:27;;;;;;;4.60;1.37;;;;;;;;;;5091257;28;20551;-73
2022/02/23 09:20:54;;;;;;;5.13;1.33;;;;;;;;;;5091114;28;20460;-74
2022/02/23 09:23:21;;;;;;;2.93;1.13;;;;;;;;;;5090922;28;20449;-74
2022/02/23 09:25:50;;;;;;;5.77;1.77;;;;;;;;;;5091312;28;20444;-73
2022/02/23 09:28:17;;;;;;;4.10;1.23;;;;;;;;;;5091858;28;20452;-73
2022/02/23 09:30:44;;;;;;;5.90;1.90;;;;;;;;;;5091885;28;20935;-73
2022/02/23 09:33:11;;;;;;;5.00;1.23;;;;;;;;;;5091576;28;20476;-74
2022/02/23 09:35:39;;;;;;;2.43;1.30;;;;;;;;;;5090339;28;20730;-74
2022/02/23 09:38:06;;;;;;;3.60;1.37;;;;;;;;;;5091412;28;20799;-73
2022/02/23 09:40:34;;;;;;;5.60;1.53;;;;;;;;;;5090614;28;20495;-74
2022/02/23 09:43:02;;;;;;;5.03;1.83;;;;;;;;;;5091500;28;20458;-74
2022/02/23 09:45:30;;;;;;;2.33;1.20;;;;;;;;;;5089998;28;20494;-74
2022/02/23 09:47:57;;;;;;;2.77;1.13;;;;;;;;;;5091449;28;20536;-74
2022/02/23 09:50:25;;;;;;;10.30;1.63;;;;;;;;;;5090487;28;20460;-74
2022/02/23 09:52:53;;;;;;;4.23;1.33;;;;;;;;;;5091428;28;20512;-73
2022/02/23 09:55:22;;;;;;;4.10;1.37;;;;;;;;;;5090217;28;20447;-74
2022/02/23 09:57:49;;;;;;;4.43;1.80;;;;;;;;;;5091528;28;20451;-74
2022/02/23 10:00:18;;;;;;;8.13;2.13;;;;;;;;;;5078558;28;20877;-74
2022/02/23 10:02:46;;;;;;;6.20;1.57;;;;;;;;;;5091439;28;20484;-74
2022/02/23 10:05:13;;;;;;;5.20;1.33;;;;;;;;;;5090641;28;20559;-74
2022/02/23 10:07:40;;;;;;;4.40;1.93;;;;;;;;;;5091408;28;20508;-74
2022/02/23 10:10:09;;;;;;;5.00;1.40;;;;;;;;;;5091024;28;20451;-73
2022/02/23 10:12:37;;;;;;;1.77;1.10;;;;;;;;;;5090524;28;20463;-74
2022/02/23 10:15:05;;;;;;;3.70;1.20;;;;;;;;;;5090742;28;20505;-73
2022/02/23 10:17:38;;;;;;;4.10;1.30;;;;;;;;;;5090359;28;20791;-73
2022/02/23 10:20:05;;;;;;;3.50;1.20;;;;;;;;;;5091124;28;20443;-73
2022/02/23 10:22:33;;;;;;;4.13;1.40;;;;;;;;;;5092053;28;20460;-75
2022/02/23 10:25:00;;;;;;;5.87;1.97;;;;;;;;;;5090574;28;20840;-74
2022/02/23 10:27:34;;;;;;;6.53;1.50;;;;;;;;;;5090009;28;20444;-74
2022/02/23 10:30:01;;;;;;;3.03;1.00;;;;;;;;;;5091483;28;20524;-73
2022/02/23 10:32:28;;;;;;;3.23;1.20;;;;;;;;;;5093229;28;20520;-74
2022/02/23 10:34:59;;;;;;;5.90;1.60;;;;;;;;;;5094769;28;20448;-74
2022/02/23 10:37:27;;;;;;;3.27;1.20;;;;;;;;;;5082295;28;20460;-74
2022/02/23 10:39:57;;;;;;;5.80;1.40;;;;;;;;;;5096239;28;20813;-74
2022/02/23 10:42:26;;;;;;;2.57;1.17;;;;;;;;;;5095432;28;20444;-73
2022/02/23 10:44:54;;;;;;;3.67;1.20;;;;;;;;;;5096579;28;20484;-74
2022/02/23 10:47:23;;;;;;;4.10;1.30;;;;;;;;;;5095920;28;20454;-74
2022/02/23 10:50:02;;;;;;;4.87;1.43;;;;;;;;;;5095493;28;20536;-74
2022/02/23 10:52:30;;;;;;;6.10;1.50;;;;;;;;;;5094647;28;20990;-75
2022/02/23 10:55:11;;;;;;;3.90;1.53;;;;;;;;;;5095305;28;20790;-76
2022/02/23 10:57:43;;;;;;;3.00;1.77;;;;;;;;;;5094101;28;20662;-73
2022/02/23 11:00:14;;;;;;;7.10;1.50;;;;;;;;;;5082811;28;20535;-73
2022/02/23 11:02:41;;;;;;;5.30;1.00;;;;;;;;;;5094693;28;21066;-73
2022/02/23 11:05:10;;;;;;;3.13;1.30;;;;;;;;;;5093652;28;20475;-73
2022/02/23 11:07:37;;;;;;;3.03;1.20;;;;;;;;;;5093396;28;20452;-74
2022/02/23 11:10:05;;;;;;;5.13;1.30;;;;;;;;;;5094162;28;20451;-74
2022/02/23 11:12:33;;;;;;;3.87;1.07;;;;;;;;;;5093671;28;20480;-73
2022/02/23 11:15:00;;;;;;;3.80;1.00;;;;;;;;;;5094224;28;20459;-73
2022/02/23 11:17:27;;;;;;;2.50;1.33;;;;;;;;;;5093678;28;20535;-74
2022/02/23 11:19:55;;;;;;;2.00;0.97;;;;;;;;;;5094580;28;20525;-74
2022/02/23 11:22:24;;;;;;;5.00;1.30;;;;;;;;;;5094163;28;20444;-73
2022/02/23 11:24:51;;;;;;;2.33;1.53;;;;;;;;;;5094105;28;20487;-74
2022/02/23 11:27:22;;;;;;;6.23;1.43;;;;;;;;;;5094667;28;20480;-73
2022/02/23 11:29:53;;;;;;;8.33;2.00;;;;;;;;;;5094272;28;20502;-74
2022/02/23 11:32:31;;;;;;;2.50;1.67;;;;;;;;;;5093504;28;20531;-73
2022/02/23 11:34:58;;;;;;;5.00;1.60;;;;;;;;;;5094077;28;20467;-74
2022/02/23 11:37:30;;;;;;;3.80;1.57;;;;;;;;;;5081062;28;20959;-74
2022/02/23 11:39:58;;;;;;;3.47;2.00;;;;;;;;;;5095035;28;20882;-74
2022/02/23 11:42:25;;;;;;;3.90;1.50;;;;;;;;;;5094810;28;20547;-74
2022/02/23 11:45:05;;;;;;;9.53;1.60;;;;;;;;;;5093483;28;20516;-75
2022/02/23 11:47:33;;;;;;;3.67;1.40;;;;;;;;;;5093329;28;20433;-74
2022/02/23 11:53:06;;;;;;;4.63;1.67;;;;;;;;;;5094128;28;20833;-74
2022/02/23 12:02:01;;;;;;;4.30;1.70;;;11.80;99.90;;;;;;5082263;28;20792;-74
2022/02/23 12:04:46;;;;;;;3.67;1.40;;;12.10;99.90;;;;;;5092605;28;20488;-74
2022/02/23 12:07:14;;;;;;;2.03;1.20;;;12.10;99.90;;;;;;5094557;28;20444;-74
2022/02/23 12:10:03;;;;;;;3.83;1.50;;;12.20;99.90;;;;;;5093286;28;20490;-74
2022/02/23 12:12:31;;;;;;;4.87;1.37;;;12.20;99.90;;;;;;5092096;28;20483;-73
2022/02/23 12:15:02;;;;;;;2.90;1.50;;;11.90;99.90;;;;;;5092866;28;20455;-74
2022/02/23 12:17:49;;;;;;;3.13;1.50;;;12.00;99.90;;;;;;5092517;28;20508;-74
2022/02/23 12:20:54;;;;;;;4.97;1.50;;;11.60;99.90;;;;;;5093376;28;20462;-74
2022/02/23 12:23:44;;;;;;;6.17;1.50;;;11.70;99.90;;;;;;5082656;28;20506;-74
2022/02/23 12:26:21;;;;;;;2.27;1.13;;;11.80;99.90;;;;;;5079559;28;20476;-74
2022/02/23 12:28:51;;;;;;;2.80;1.40;;;11.90;99.90;;;;;;5092734;28;20447;-73
2022/02/23 12:31:20;;;;;;;4.10;1.50;;;11.90;99.90;;;;;;5092527;28;20873;-74
2022/02/23 12:33:50;;;;;;;4.23;1.67;;;12.10;99.90;;;;;;5092201;28;20958;-73
2022/02/23 12:36:43;;;;;;;4.47;1.40;;;12.20;99.90;;;;;;5092261;28;20539;-74
2022/02/23 12:39:13;;;;;;;3.40;2.00;;;12.30;99.90;;;;;;5079214;28;20445;-74
2022/02/23 12:41:40;;;;;;;4.77;1.50;;;12.60;99.90;;;;;;5091842;28;20510;-74
2022/02/23 12:44:12;;;;;;;5.23;1.60;;;12.50;99.90;;;;;;5092743;28;20511;-74
2022/02/23 12:46:44;;;;;;;2.80;1.47;;;12.50;99.90;;;;;;5091947;28;20906;-74
2022/02/23 12:49:12;;;;;;;7.10;1.67;;;12.80;99.90;;;;;;5092673;28;20495;-74
2022/02/23 12:51:41;;;;;;;3.70;1.33;;;12.70;99.90;;;;;;5091766;28;20622;-75
2022/02/23 12:54:10;;;;;;;2.73;1.33;;;12.90;99.90;;;;;;5092708;28;21274;-75
2022/02/23 12:56:39;;;;;;;4.43;1.10;;;13.10;99.90;;;;;;5093380;28;20787;-74
2022/02/23 12:59:10;;;;;;;3.53;1.40;;;13.00;99.90;;;;;;5097718;28;20785;-74
2022/02/23 13:01:40;;;;;;;10.10;2.00;;;13.00;99.90;;;;;;5091909;28;20796;-74
2022/02/23 13:04:08;;;;;;;4.13;1.83;;;12.80;99.90;;;;;;5093549;28;20494;-74
2022/02/23 13:06:37;;;;;;;8.80;1.87;;;13.10;99.90;;;;;;5093849;28;20476;-74
2022/02/23 13:09:07;;;;;;;5.27;1.93;;;13.20;99.90;;;;;;5095481;28;20487;-74
2022/02/23 13:11:37;;;;;;;3.63;1.63;;;13.20;99.90;;;;;;5080521;28;20444;-74
2022/02/23 13:14:07;;;;;;;3.97;1.60;;;13.00;99.90;;;;;;5092396;28;20792;-74
2022/02/23 13:16:36;;;;;;;2.60;1.40;;;13.10;99.90;;;;;;5090945;28;20528;-74
2022/02/23 13:19:08;;;;;;;9.13;2.03;;;13.10;99.90;;;;;;5091724;28;20478;-74
2022/02/23 13:21:48;;;;;;;2.27;1.27;;;12.70;99.90;;;;;;5092357;28;20452;-74
2022/02/23 13:24:17;;;;;;;6.60;1.27;;;13.20;99.90;;;;;;5091776;28;20868;-74
2022/02/23 13:26:46;;;;;;;2.43;1.50;;;13.30;99.90;;;;;;5091476;28;20563;-75
2022/02/23 13:29:15;;;;;;;3.23;1.60;;;13.00;99.90;;;;;;5091516;28;20559;-74
2022/02/23 13:31:49;;;;;;;3.33;1.23;;;13.20;99.90;;;;;;5091038;28;20487;-74
2022/02/23 13:34:34;;;;;;;3.53;1.40;;;13.30;99.90;;;;;;5087741;28;20471;-74
2022/02/23 13:37:09;;;;;;;5.17;1.57;;;13.30;99.90;;;;;;5094868;28;20475;-75
2022/02/23 13:39:45;;;;;;;2.67;1.40;;;13.60;99.90;;;;;;5095932;28;20450;-73
2022/02/23 13:42:14;;;;;;;4.83;1.67;;;13.40;99.90;;;;;;5091702;28;20489;-74
2022/02/23 13:44:43;;;;;;;2.60;1.10;;;13.90;99.90;;;;;;5090281;28;20452;-74